Portada
METAR-TAF:

METAR-TAF

Aeropuertos :

Castres, Francia

latitud: 43-33-25N, longitud: 2-17-21E, altitud: 239 m

Observación

El informe se hizo hace 23 minutos, a las 01:00 UTC
Viento 27 kt del sureste con ráfagas de 40 kt
Temperatura 12°C
Humedad 40%
Presión 1025 hPa
Visibilidad 10 km o más
sin nubes por debajo de 1500 m y sin presencia de cumulonimbus.

METAR: LFCK 020100Z AUTO 13027G40KT CAVOK 12/M01 Q1025

Hora: 02:23 (01:23 UTC)

Pronóstico

El informe se hizo hace 8 horas y 23 minutos, a las 17:00 UTC
Pronóstico válido del 01 a las 18 UTC al 02 a las 03 UTC
Viento 25 kt del sureste con ráfagas de 38 kt
Visibilidad 10 km o más
sin nubes por debajo de 1500 m y sin presencia de cumulonimbus.

TAF: LFCK 011700Z 0118/0203 13025G38KT CAVOK

Observaciones y pronósticos meteorológicos de más de 4000 aeropuertos (mensajes METAR y TAF).

Los puntos amarillos y rojos representan las estaciones disponibles.

Ponga el ratón en el punto deseado para ver el nombre de la estación.

Haga clic para ver las observaciones y los pronósticos meteorológicos.

Para cambiar el mapa : haga clic en los botones verdes con una cruz de color negro para hacer un zoom, en el botón verde con un guión para alejar o en las flechas verdes para mapas adyacentes.


METAR-TAF: